Time;durP1;ratioP1;P1;durP2;ratioP2;P2;SDS_P1;SDS_P2;PMS_P1;PMS_P2;Temp;Humidity;BMP_temperature;BMP_pressure;BME280_temperature;BME280_humidity;BME280_pressure;Samples;Min_cycle;Max_cycle;Signal;HPM_P1;HPM_P2
2021/04/10 00:02:01;;;;;;;2.72;0.90;;;20.10;99.90;;;;;;5043426;28;20033;-73
2021/04/10 00:04:28;;;;;;;3.72;0.75;;;20.20;99.90;;;;;;5053085;28;20025;-72
2021/04/10 00:06:55;;;;;;;3.97;0.68;;;20.40;99.90;;;;;;5048614;28;21632;-71
2021/04/10 00:09:23;;;;;;;4.57;1.13;;;20.50;99.90;;;;;;5052710;28;20028;-71
2021/04/10 00:11:50;;;;;;;4.70;0.40;;;20.90;99.90;;;;;;5051040;28;20500;-72
2021/04/10 00:14:20;;;;;;;2.50;0.55;;;20.60;98.00;;;;;;5043346;28;20334;-71
2021/04/10 00:16:48;;;;;;;4.15;0.80;;;20.70;98.80;;;;;;5044631;28;21864;-72
2021/04/10 00:19:15;;;;;;;3.30;0.90;;;20.70;98.10;;;;;;5049139;28;20025;-71
2021/04/10 00:21:42;;;;;;;3.58;0.50;;;20.60;97.80;;;;;;5047203;28;20033;-72
2021/04/10 00:24:11;;;;;;;2.55;0.52;;;20.70;97.60;;;;;;5048771;28;20493;-71
2021/04/10 00:26:38;;;;;;;3.97;0.52;;;20.80;96.60;;;;;;5044855;28;20044;-72
2021/04/10 00:29:09;;;;;;;4.10;0.70;;;21.00;96.90;;;;;;5046405;28;20121;-71
2021/04/10 00:31:36;;;;;;;2.83;0.73;;;21.00;96.00;;;;;;5050796;28;20108;-71
2021/04/10 00:34:03;;;;;;;1.55;0.30;;;20.90;95.40;;;;;;5051472;28;20040;-71
2021/04/10 00:36:30;;;;;;;2.03;0.57;;;20.80;95.00;;;;;;5050834;28;20029;-71
2021/04/10 00:38:58;;;;;;;2.95;0.82;;;20.90;95.00;;;;;;5048124;28;20107;-71
2021/04/10 00:41:25;;;;;;;2.28;0.40;;;21.00;95.10;;;;;;5039397;28;20029;-71
2021/04/10 00:43:52;;;;;;;5.15;0.90;;;21.30;94.60;;;;;;5030890;28;20029;-72
2021/04/10 00:46:19;;;;;;;2.58;0.40;;;21.60;94.70;;;;;;5047430;28;20017;-71
2021/04/10 00:48:47;;;;;;;1.95;0.40;;;21.10;93.90;;;;;;5051843;28;20422;-71
2021/04/10 00:51:15;;;;;;;2.20;0.50;;;21.10;94.00;;;;;;5052116;28;20029;-72
2021/04/10 00:53:43;;;;;;;3.60;0.35;;;21.30;94.40;;;;;;5050582;28;20029;-72
2021/04/10 00:56:11;;;;;;;3.38;0.40;;;21.10;93.80;;;;;;5050795;28;20053;-72
2021/04/10 00:58:39;;;;;;;2.00;0.30;;;21.10;93.30;;;;;;5050885;28;20033;-72
2021/04/10 01:01:06;;;;;;;1.98;0.40;;;21.10;93.80;;;;;;5048963;28;20207;-72
2021/04/10 01:03:34;;;;;;;3.50;0.55;;;21.60;93.80;;;;;;5048975;28;20040;-72
2021/04/10 01:06:02;;;;;;;2.33;0.60;;;21.80;93.90;;;;;;5052313;28;20393;-72
2021/04/10 01:08:30;;;;;;;4.38;0.80;;;21.60;94.00;;;;;;5050598;28;20401;-72
2021/04/10 01:11:14;;;;;;;3.40;0.77;;;22.00;93.60;;;;;;5051951;28;20427;-72
2021/04/10 01:13:49;;;;;;;;;;;22.20;93.60;;;;;;5047573;28;20025;-72
2021/04/10 01:16:47;;;;;;;3.22;0.55;;;22.40;93.40;;;;;;5051065;28;19915;-72
2021/04/10 01:19:51;;;;;;;2.88;0.50;;;22.20;93.00;;;;;;5031719;28;20057;-72
2021/04/10 01:22:50;;;;;;;3.22;0.70;;;21.60;92.80;;;;;;5038720;28;20020;-72
2021/04/10 01:25:41;;;;;;;2.20;0.40;;;21.80;93.30;;;;;;5052141;28;20124;-72
2021/04/10 01:28:26;;;;;;;3.38;0.70;;;22.10;93.40;;;;;;5050193;28;20021;-72
2021/04/10 01:30:55;;;;;;;2.78;0.70;;;22.10;93.20;;;;;;5052091;28;20098;-72
2021/04/10 01:33:28;;;;;;;2.33;0.60;;;22.20;93.20;;;;;;5050046;28;20909;-72
2021/04/10 01:36:00;;;;;;;3.73;1.00;;;22.20;92.40;;;;;;5051788;28;20467;-72
2021/04/10 01:38:29;;;;;;;5.05;0.93;;;22.20;92.70;;;;;;5046804;28;20028;-72
2021/04/10 01:41:04;;;;;;;7.00;1.08;;;22.30;92.80;;;;;;5031887;28;20021;-72
2021/04/10 01:43:34;;;;;;;2.97;0.80;;;22.10;92.90;;;;;;5048567;28;20059;-71
2021/04/10 01:46:03;;;;;;;3.65;0.68;;;22.00;93.00;;;;;;5055436;28;20021;-71
2021/04/10 01:48:34;;;;;;;1.42;0.55;;;22.20;93.80;;;;;;5053683;28;20108;-71
2021/04/10 01:51:02;;;;;;;2.47;0.70;;;22.50;93.00;;;;;;5055641;28;20370;-71
2021/04/10 01:53:30;;;;;;;2.17;0.70;;;22.20;93.30;;;;;;5053321;28;20037;-71
2021/04/10 01:55:59;;;;;;;3.15;0.75;;;22.90;92.20;;;;;;5055236;28;20397;-72
2021/04/10 01:58:27;;;;;;;3.97;0.95;;;22.60;92.00;;;;;;5053544;28;20515;-72
2021/04/10 02:00:57;;;;;;;3.80;0.65;;;22.80;91.40;;;;;;5054084;28;20025;-71
2021/04/10 02:03:24;;;;;;;3.75;0.80;;;22.70;92.60;;;;;;5053625;28;20025;-71
2021/04/10 02:05:54;;;;;;;5.25;1.27;;;23.10;92.50;;;;;;5054075;28;20021;-72
2021/04/10 02:08:24;;;;;;;2.65;0.93;;;22.90;92.30;;;;;;5048315;28;20113;-71
2021/04/10 02:10:54;;;;;;;3.85;0.80;;;22.60;92.10;;;;;;5035146;28;20029;-72
2021/04/10 02:13:23;;;;;;;6.55;0.75;;;22.60;92.60;;;;;;5048931;28;20074;-70
2021/04/10 02:15:53;;;;;;;5.07;0.98;;;23.30;92.70;;;;;;5050088;28;20474;-71
2021/04/10 02:18:21;;;;;;;4.03;0.73;;;23.10;92.40;;;;;;5052098;28;20509;-70
2021/04/10 02:20:48;;;;;;;1.90;0.45;;;23.10;91.90;;;;;;5053900;28;20029;-70
2021/04/10 02:23:19;;;;;;;4.20;1.08;;;22.70;92.50;;;;;;5050572;28;20021;-70
2021/04/10 02:25:47;;;;;;;3.35;0.95;;;22.80;91.80;;;;;;5052803;28;20029;-70
2021/04/10 02:28:14;;;;;;;2.78;0.60;;;22.80;91.70;;;;;;5051052;28;20048;-71
2021/04/10 02:30:42;;;;;;;3.20;0.47;;;22.90;92.10;;;;;;5053033;28;20025;-70
2021/04/10 02:33:20;;;;;;;3.95;0.60;;;23.10;91.50;;;;;;5050470;28;20053;-70
2021/04/10 02:35:56;;;;;;;2.55;0.70;;;22.90;91.30;;;;;;5053001;28;20029;-69
2021/04/10 02:38:25;;;;;;;3.13;0.88;;;22.50;91.30;;;;;;5042057;28;20095;-70
2021/04/10 02:41:07;;;;;;;2.08;0.50;;;22.80;91.00;;;;;;5052712;28;20331;-72
2021/04/10 02:43:38;;;;;;;4.80;0.73;;;23.00;90.70;;;;;;5050949;28;20029;-69
2021/04/10 02:46:07;;;;;;;5.78;0.70;;;22.80;91.00;;;;;;5044867;28;20033;-71
2021/04/10 02:48:56;;;;;;;5.38;0.60;;;23.00;90.30;;;;;;5049647;28;20033;-70
2021/04/10 02:51:39;;;;;;;4.60;0.85;;;22.80;90.80;;;;;;5050212;28;20029;-71
2021/04/10 02:54:08;;;;;;;2.85;0.90;;;23.10;90.60;;;;;;5035490;28;20025;-70
2021/04/10 02:56:40;;;;;;;2.95;0.63;;;22.90;90.20;;;;;;5042895;28;20032;-71
2021/04/10 02:59:09;;;;;;;5.15;0.52;;;22.60;90.60;;;;;;5051144;28;20025;-70
2021/04/10 03:01:38;;;;;;;3.15;0.45;;;22.90;90.60;;;;;;5050228;28;20138;-70
2021/04/10 03:04:07;;;;;;;4.22;0.93;;;23.00;89.50;;;;;;5053740;28;20032;-71
2021/04/10 03:06:35;;;;;;;3.63;1.02;;;23.00;90.20;;;;;;5052602;28;20044;-70
2021/04/10 03:09:03;;;;;;;2.42;0.50;;;23.10;90.30;;;;;;5053755;28;20017;-70
2021/04/10 03:11:31;;;;;;;2.17;0.77;;;23.20;88.50;;;;;;5050786;28;20505;-71
2021/04/10 03:13:58;;;;;;;2.38;0.30;;;23.20;88.00;;;;;;5050304;28;20033;-70
2021/04/10 03:16:33;;;;;;;2.53;0.43;;;23.40;88.00;;;;;;5033680;28;20036;-71
2021/04/10 03:19:03;;;;;;;2.78;0.40;;;23.30;87.00;;;;;;5050353;28;20044;-71
2021/04/10 03:21:30;;;;;;;2.10;0.40;;;23.70;88.20;;;;;;5051755;28;20020;-70
2021/04/10 03:23:58;;;;;;;1.85;0.50;;;23.40;85.10;;;;;;5053751;28;20032;-70
2021/04/10 03:26:26;;;;;;;1.45;0.25;;;23.40;87.00;;;;;;5035391;28;20044;-70
2021/04/10 03:28:55;;;;;;;2.13;0.45;;;23.50;86.40;;;;;;5050525;28;20036;-71
2021/04/10 03:31:23;;;;;;;1.92;0.65;;;23.40;85.40;;;;;;5067109;28;20036;-71
2021/04/10 03:33:50;;;;;;;2.45;0.30;;;23.40;84.50;;;;;;5052917;28;20057;-71
2021/04/10 03:36:18;;;;;;;1.55;0.43;;;23.50;85.50;;;;;;5048671;28;20029;-70
2021/04/10 03:38:46;;;;;;;3.58;0.60;;;23.40;84.60;;;;;;5052206;28;20029;-71
2021/04/10 03:41:13;;;;;;;1.95;0.28;;;23.30;83.90;;;;;;5053396;28;20040;-71
2021/04/10 03:43:41;;;;;;;4.75;0.60;;;23.30;82.70;;;;;;5051557;28;20033;-70
2021/04/10 03:46:09;;;;;;;2.97;0.40;;;23.40;84.80;;;;;;5068860;28;20028;-71
2021/04/10 03:48:36;;;;;;;3.90;0.60;;;23.60;84.00;;;;;;5051754;28;20417;-71
2021/04/10 03:51:04;;;;;;;3.22;0.50;;;23.50;83.80;;;;;;5068633;28;20036;-71
2021/04/10 03:53:31;;;;;;;5.00;1.48;;;23.40;82.70;;;;;;5051548;28;20047;-71
2021/04/10 03:55:58;;;;;;;3.20;0.75;;;23.40;84.40;;;;;;5052022;28;20083;-72
2021/04/10 03:58:26;;;;;;;3.40;1.02;;;23.60;83.40;;;;;;5049033;28;20029;-71
2021/04/10 04:00:53;;;;;;;6.72;1.65;;;23.50;81.70;;;;;;5052844;28;20472;-71
2021/04/10 04:03:20;;;;;;;4.05;0.65;;;23.70;82.80;;;;;;5051586;28;20039;-71
2021/04/10 04:05:48;;;;;;;1.95;0.45;;;23.50;83.20;;;;;;5053155;28;20027;-71
2021/04/10 04:08:15;;;;;;;1.17;0.40;;;23.70;81.50;;;;;;5039554;28;20367;-70
2021/04/10 04:10:42;;;;;;;2.40;0.40;;;23.50;78.70;;;;;;5033258;28;20505;-70
2021/04/10 04:13:09;;;;;;;3.78;0.75;;;23.40;81.30;;;;;;5033105;28;20034;-71
2021/04/10 04:15:37;;;;;;;3.17;0.50;;;23.50;81.50;;;;;;5047897;28;20033;-71
2021/04/10 04:18:04;;;;;;;5.93;0.95;;;23.50;80.90;;;;;;5050759;28;20041;-71
2021/04/10 04:20:31;;;;;;;3.40;0.55;;;23.40;80.70;;;;;;5052630;28;20056;-71
2021/04/10 04:22:58;;;;;;;4.43;0.40;;;23.60;81.10;;;;;;5050897;28;20103;-71
2021/04/10 04:25:26;;;;;;;2.40;0.68;;;23.60;80.20;;;;;;5052601;28;20024;-71
2021/04/10 04:27:53;;;;;;;6.25;0.50;;;23.60;79.70;;;;;;5050869;28;20381;-71
2021/04/10 04:30:21;;;;;;;3.05;0.47;;;23.40;80.30;;;;;;5052652;28;20025;-71
2021/04/10 04:32:48;;;;;;;2.83;0.50;;;23.30;79.20;;;;;;5050551;28;20102;-71
2021/04/10 04:35:16;;;;;;;1.95;0.30;;;23.40;80.40;;;;;;5052389;28;20021;-70
2021/04/10 04:37:46;;;;;;;4.68;0.73;;;23.40;79.20;;;;;;5050630;28;20521;-70
2021/04/10 04:40:14;;;;;;;1.88;0.32;;;23.40;83.20;;;;;;5052337;28;20017;-70
2021/04/10 04:42:42;;;;;;;2.63;0.35;;;23.40;80.40;;;;;;5050632;28;20087;-71
2021/04/10 04:45:10;;;;;;;2.05;0.30;;;23.30;78.40;;;;;;5044288;28;20025;-70
2021/04/10 04:47:37;;;;;;;3.05;0.70;;;23.10;80.00;;;;;;5042103;28;20060;-70
2021/04/10 04:50:05;;;;;;;2.95;0.70;;;23.00;80.40;;;;;;5050142;28;20033;-70
2021/04/10 04:52:33;;;;;;;2.88;0.45;;;23.10;81.10;;;;;;5049911;28;20056;-70
2021/04/10 04:55:00;;;;;;;3.85;0.52;;;23.10;80.90;;;;;;5050780;28;20128;-70
2021/04/10 04:57:27;;;;;;;4.53;0.60;;;23.10;79.70;;;;;;5050344;28;20053;-70
2021/04/10 04:59:55;;;;;;;1.35;0.40;;;23.00;80.10;;;;;;5052296;28;20131;-72
2021/04/10 05:02:22;;;;;;;3.50;0.75;;;23.00;79.40;;;;;;5048045;28;20032;-70
2021/04/10 05:04:49;;;;;;;2.13;0.68;;;22.80;78.90;;;;;;5051750;28;20040;-70
2021/04/10 05:07:17;;;;;;;3.30;0.60;;;22.80;80.00;;;;;;5050299;28;20029;-70
2021/04/10 05:09:44;;;;;;;4.32;0.88;;;22.90;80.60;;;;;;5052334;28;20086;-71
2021/04/10 05:12:12;;;;;;;1.75;0.40;;;22.90;80.80;;;;;;5050363;28;20111;-70
2021/04/10 05:14:39;;;;;;;2.75;0.73;;;23.00;80.20;;;;;;5048154;28;20545;-70
2021/04/10 05:17:06;;;;;;;2.28;0.80;;;22.90;78.30;;;;;;5035969;28;20029;-71
2021/04/10 05:19:34;;;;;;;2.67;0.63;;;22.90;79.80;;;;;;5054501;28;20033;-70
2021/04/10 05:22:01;;;;;;;4.28;1.40;;;22.90;78.90;;;;;;5047288;28;20029;-70
2021/04/10 05:24:28;;;;;;;5.15;0.38;;;22.90;80.10;;;;;;5047670;28;20078;-72
2021/04/10 05:26:55;;;;;;;4.47;0.52;;;22.80;79.40;;;;;;5040664;28;20021;-71
2021/04/10 05:29:23;;;;;;;3.88;0.70;;;22.80;80.50;;;;;;5046343;28;20028;-71
2021/04/10 05:31:50;;;;;;;2.22;0.60;;;22.90;79.60;;;;;;5049730;28;20052;-70
2021/04/10 05:34:17;;;;;;;1.65;0.30;;;22.80;79.40;;;;;;5051466;28;20025;-70
2021/04/10 05:36:45;;;;;;;5.57;0.73;;;22.80;79.40;;;;;;5042982;28;20105;-70
2021/04/10 05:39:12;;;;;;;3.83;0.60;;;22.80;81.00;;;;;;5049937;28;20036;-70
2021/04/10 05:41:39;;;;;;;4.35;0.40;;;22.80;79.50;;;;;;5047645;28;20056;-70
2021/04/10 05:44:07;;;;;;;2.10;0.32;;;22.70;79.60;;;;;;5049394;28;20033;-69
2021/04/10 05:46:34;;;;;;;2.17;0.38;;;22.70;80.10;;;;;;5049397;28;20036;-69
2021/04/10 05:49:01;;;;;;;4.57;0.55;;;22.70;80.40;;;;;;5055592;28;20052;-69
2021/04/10 05:51:29;;;;;;;2.53;0.40;;;22.60;80.00;;;;;;5053820;28;20035;-70
2021/04/10 05:53:56;;;;;;;1.42;0.20;;;22.60;80.10;;;;;;5035692;28;20101;-70
2021/04/10 05:56:23;;;;;;;1.77;0.28;;;22.50;80.20;;;;;;5035831;28;20044;-69
2021/04/10 05:58:51;;;;;;;2.28;0.55;;;22.50;79.40;;;;;;5054398;28;20021;-70
2021/04/10 06:01:18;;;;;;;2.83;0.50;;;22.40;79.30;;;;;;5037553;28;20070;-70
2021/04/10 06:03:45;;;;;;;2.70;0.30;;;22.50;78.70;;;;;;5054596;28;20087;-71
2021/04/10 06:06:13;;;;;;;1.25;0.20;;;22.30;78.10;;;;;;5055646;28;20021;-70
2021/04/10 06:08:40;;;;;;;2.25;0.60;;;22.20;78.30;;;;;;5053954;28;20381;-70
2021/04/10 06:11:07;;;;;;;2.15;0.60;;;22.10;78.30;;;;;;5055440;28;20444;-70
2021/04/10 06:13:34;;;;;;;1.30;0.50;;;22.00;78.80;;;;;;5053838;28;20037;-69
2021/04/10 06:16:06;;;;;;;2.15;0.40;;;22.00;79.60;;;;;;5053247;28;20116;-70
2021/04/10 06:18:33;;;;;;;1.30;0.40;;;22.00;79.00;;;;;;5053694;28;20025;-70
2021/04/10 06:21:01;;;;;;;2.17;0.38;;;22.00;79.40;;;;;;5055128;28;20027;-70
2021/04/10 06:23:28;;;;;;;5.00;0.73;;;21.90;79.60;;;;;;5053418;28;20091;-69
2021/04/10 06:25:55;;;;;;;1.33;0.30;;;21.80;80.30;;;;;;5053745;28;20125;-70
2021/04/10 06:28:22;;;;;;;3.28;0.82;;;21.80;80.40;;;;;;5053565;28;20037;-70
2021/04/10 06:30:50;;;;;;;3.17;0.45;;;21.80;81.20;;;;;;5052437;28;20123;-70
2021/04/10 06:33:20;;;;;;;1.20;0.30;;;21.80;80.50;;;;;;5039669;28;20072;-70
2021/04/10 06:35:48;;;;;;;3.90;0.70;;;21.80;80.80;;;;;;5045998;28;20500;-70
2021/04/10 06:38:15;;;;;;;3.33;0.68;;;21.60;81.30;;;;;;5049944;28;20103;-69
2021/04/10 06:40:45;;;;;;;2.58;0.40;;;21.60;80.90;;;;;;5052412;28;20024;-70
2021/04/10 06:43:12;;;;;;;1.73;0.30;;;21.50;80.10;;;;;;5052560;28;20492;-71
2021/04/10 06:45:40;;;;;;;2.10;0.40;;;21.50;80.30;;;;;;5054780;28;20111;-70
2021/04/10 06:48:13;;;;;;;2.05;0.30;;;21.50;80.60;;;;;;5053114;28;20017;-69
2021/04/10 06:50:45;;;;;;;3.72;0.70;;;21.40;81.40;;;;;;5050944;28;20052;-70
2021/04/10 06:53:17;;;;;;;2.78;0.43;;;21.30;81.10;;;;;;5051055;28;20033;-70
2021/04/10 06:55:57;;;;;;;3.00;0.60;;;21.20;82.10;;;;;;5053360;28;20566;-70
2021/04/10 06:58:44;;;;;;;3.25;0.40;;;21.20;82.30;;;;;;5050422;28;20021;-70
2021/04/10 07:01:13;;;;;;;2.50;0.65;;;21.10;82.10;;;;;;5051270;28;20071;-70
2021/04/10 07:03:43;;;;;;;3.33;0.38;;;20.90;83.20;;;;;;5064854;28;20393;-70
2021/04/10 07:06:15;;;;;;;2.25;0.50;;;20.80;84.00;;;;;;5052730;28;20086;-69
2021/04/10 07:08:42;;;;;;;3.75;0.73;;;20.80;84.20;;;;;;5051204;28;20148;-70
2021/04/10 07:11:10;;;;;;;2.17;0.35;;;20.60;84.10;;;;;;5053692;28;20480;-70
2021/04/10 07:13:37;;;;;;;3.63;0.70;;;20.50;84.40;;;;;;5049853;28;20024;-70
2021/04/10 07:16:05;;;;;;;3.08;0.50;;;20.40;84.80;;;;;;5050652;28;20455;-70
2021/04/10 07:18:32;;;;;;;2.60;0.60;;;20.30;85.40;;;;;;5047260;28;20022;-70
2021/04/10 07:21:19;;;;;;;2.90;0.80;;;20.30;85.40;;;;;;5046317;28;20041;-69
2021/04/10 07:23:46;;;;;;;4.32;0.98;;;20.20;85.80;;;;;;5053195;28;20040;-70
2021/04/10 07:26:14;;;;;;;4.57;0.63;;;20.10;85.90;;;;;;5053774;28;20051;-69
2021/04/10 07:28:42;;;;;;;4.75;0.70;;;20.10;85.90;;;;;;5049671;28;20021;-70
2021/04/10 07:31:15;;;;;;;3.47;0.60;;;20.00;86.30;;;;;;5049042;28;20028;-70
2021/04/10 07:33:44;;;;;;;4.20;0.63;;;19.90;86.20;;;;;;5047251;28;20044;-70
2021/04/10 07:36:14;;;;;;;3.08;0.55;;;19.90;86.40;;;;;;5045775;28;20029;-70
2021/04/10 07:38:45;;;;;;;1.92;0.40;;;19.90;86.80;;;;;;5047387;28;20481;-70
2021/04/10 07:41:15;;;;;;;5.75;0.80;;;19.80;86.80;;;;;;5044122;28;20103;-70
2021/04/10 07:43:44;;;;;;;0.93;0.30;;;19.80;87.00;;;;;;5049083;28;20029;-71
2021/04/10 07:46:22;;;;;;;3.67;0.57;;;19.70;87.50;;;;;;5051596;28;20028;-71
2021/04/10 07:49:11;;;;;;;3.90;1.02;;;19.70;87.50;;;;;;5047958;28;20546;-70
2021/04/10 07:52:08;;;;;;;5.60;0.52;;;19.60;87.30;;;;;;5048823;28;20497;-71
2021/04/10 07:54:37;;;;;;;5.00;0.50;;;19.50;87.30;;;;;;5049704;28;20029;-71
2021/04/10 07:57:09;;;;;;;2.28;0.43;;;19.50;87.50;;;;;;5056863;28;20477;-70
2021/04/10 07:59:56;;;;;;;5.05;0.95;;;19.40;87.60;;;;;;5056436;28;20036;-71
2021/04/10 08:02:24;;;;;;;4.30;0.63;;;19.30;87.90;;;;;;5048523;28;20029;-70
2021/04/10 08:05:01;;;;;;;4.20;0.60;;;19.20;88.00;;;;;;5049203;28;20401;-71
2021/04/10 08:07:30;;;;;;;4.72;0.90;;;19.20;88.30;;;;;;5050216;28;20087;-71
2021/04/10 08:10:08;;;;;;;3.05;0.65;;;19.10;88.40;;;;;;5050876;28;20036;-71
2021/04/10 08:12:39;;;;;;;1.92;0.60;;;19.00;88.60;;;;;;5049229;28;20409;-71
2021/04/10 08:15:09;;;;;;;3.22;0.75;;;19.00;88.40;;;;;;5046026;28;20060;-70
2021/04/10 08:17:41;;;;;;;6.28;1.00;;;19.00;88.80;;;;;;5042730;28;20479;-70
2021/04/10 08:20:22;;;;;;;3.80;1.13;;;18.90;89.10;;;;;;5044128;28;20032;-70
2021/04/10 08:22:50;;;;;;;6.93;0.60;;;18.90;89.30;;;;;;5045014;28;20397;-71
2021/04/10 08:25:43;;;;;;;4.07;0.52;;;18.80;89.50;;;;;;5050688;28;20037;-71
2021/04/10 08:28:11;;;;;;;2.80;0.57;;;18.80;90.00;;;;;;5044258;28;20055;-70
2021/04/10 08:30:38;;;;;;;5.28;0.68;;;18.70;90.10;;;;;;5045304;28;20035;-71
2021/04/10 08:33:06;;;;;;;4.30;0.75;;;18.70;90.10;;;;;;5045615;28;20041;-71
2021/04/10 08:35:33;;;;;;;4.85;1.08;;;18.70;90.20;;;;;;5049821;28;20047;-71
2021/04/10 08:38:02;;;;;;;4.70;0.80;;;18.60;90.10;;;;;;5049825;28;20021;-71
2021/04/10 08:40:31;;;;;;;5.25;0.70;;;18.50;90.20;;;;;;5051180;28;20021;-71
2021/04/10 08:43:00;;;;;;;2.42;0.65;;;18.50;90.20;;;;;;5051945;28;20033;-70
2021/04/10 08:45:36;;;;;;;3.83;0.88;;;18.50;90.30;;;;;;5051799;28;20063;-71
2021/04/10 08:48:06;;;;;;;5.63;1.20;;;18.50;90.40;;;;;;5051117;28;20025;-70
2021/04/10 08:50:36;;;;;;;1.98;0.75;;;18.40;90.50;;;;;;5051139;28;20047;-71
2021/04/10 08:53:14;;;;;;;2.85;0.75;;;18.40;90.60;;;;;;5051192;28;20510;-71
2021/04/10 08:55:43;;;;;;;6.97;0.90;;;18.40;90.60;;;;;;5049174;28;20401;-71
2021/04/10 08:58:29;;;;;;;3.15;0.90;;;18.30;90.80;;;;;;5050218;28;20476;-70
2021/04/10 09:01:02;;;;;;;4.50;1.00;;;18.30;90.80;;;;;;5051835;28;20052;-70
2021/04/10 09:03:48;;;;;;;2.95;1.25;;;18.10;91.00;;;;;;5051311;28;20108;-69
2021/04/10 09:06:31;;;;;;;3.17;0.82;;;18.20;90.90;;;;;;5036732;28;20033;-70
2021/04/10 09:09:17;;;;;;;5.70;1.38;;;18.20;90.70;;;;;;5051282;28;20075;-71
2021/04/10 09:11:50;;;;;;;6.60;1.15;;;18.20;91.00;;;;;;5046794;28;20547;-70
2021/04/10 09:14:43;;;;;;;5.93;1.02;;;18.10;91.10;;;;;;5048610;28;20045;-70
2021/04/10 09:17:11;;;;;;;8.88;1.08;;;18.10;91.30;;;;;;5049532;28;20115;-70
2021/04/10 09:19:38;;;;;;;5.32;1.00;;;18.00;91.30;;;;;;5047024;28;20116;-70
2021/04/10 09:22:06;;;;;;;6.75;1.70;;;18.10;91.20;;;;;;5047220;28;20040;-70
2021/04/10 09:24:45;;;;;;;4.05;1.13;;;18.00;91.30;;;;;;5051483;28;20094;-70
2021/04/10 09:27:28;;;;;;;12.65;1.20;;;18.00;91.20;;;;;;5047003;28;20044;-69
2021/04/10 09:30:00;;;;;;;3.58;1.25;;;18.00;91.00;;;;;;5047120;28;20087;-70
2021/04/10 09:32:44;;;;;;;4.63;1.23;;;18.00;91.30;;;;;;5039852;28;20060;-69
2021/04/10 09:35:13;;;;;;;4.25;1.10;;;17.90;91.30;;;;;;5051329;28;20047;-70
2021/04/10 09:37:40;;;;;;;4.82;0.93;;;18.00;91.10;;;;;;5049351;28;20037;-70
2021/04/10 09:40:19;;;;;;;4.30;1.23;;;18.00;90.90;;;;;;5051788;28;20020;-69
2021/04/10 09:43:04;;;;;;;3.35;0.73;;;17.90;91.00;;;;;;5040549;28;20025;-71
2021/04/10 09:45:37;;;;;;;7.07;1.30;;;17.90;91.20;;;;;;5051055;28;20196;-71
2021/04/10 09:48:06;;;;;;;4.00;1.00;;;17.90;91.40;;;;;;5049832;28;20100;-72
2021/04/10 09:50:55;;;;;;;5.28;1.50;;;17.90;91.50;;;;;;5051017;28;20558;-70
2021/04/10 09:53:25;;;;;;;3.00;1.15;;;17.80;91.40;;;;;;5039698;28;20021;-70
2021/04/10 09:56:02;;;;;;;4.03;2.10;;;17.70;91.40;;;;;;5050997;28;20033;-71
2021/04/10 09:58:47;;;;;;;3.72;1.35;;;17.70;91.50;;;;;;5049727;28;20035;-71
2021/04/10 10:01:18;;;;;;;5.68;1.77;;;17.70;91.40;;;;;;5065077;28;20028;-71
2021/04/10 10:03:47;;;;;;;6.90;2.05;;;17.60;91.30;;;;;;5050309;28;20044;-70
2021/04/10 10:06:24;;;;;;;6.05;2.88;;;17.60;91.30;;;;;;5054316;28;20496;-70
2021/04/10 10:08:52;;;;;;;7.18;2.83;;;17.50;91.60;;;;;;5063379;28;20030;-71
2021/04/10 10:11:20;;;;;;;8.88;3.70;;;17.40;91.50;;;;;;5044791;28;20064;-71
2021/04/10 10:13:48;;;;;;;8.15;3.25;;;17.50;91.40;;;;;;5047151;28;20029;-71
2021/04/10 10:16:28;;;;;;;9.57;3.55;;;17.50;91.50;;;;;;5052643;28;20473;-71
2021/04/10 10:18:55;;;;;;;10.23;4.22;;;17.40;91.60;;;;;;5050229;28;20052;-72
2021/04/10 10:21:24;;;;;;;7.60;3.60;;;17.30;91.70;;;;;;5048060;28;20044;-71
2021/04/10 10:24:03;;;;;;;8.63;4.65;;;17.30;91.50;;;;;;5068350;28;20465;-72
2021/04/10 10:26:33;;;;;;;8.98;4.35;;;17.30;91.90;;;;;;5051615;28;20028;-72
2021/04/10 10:29:06;;;;;;;8.35;4.05;;;17.30;91.90;;;;;;5053194;28;20017;-72
2021/04/10 10:31:48;;;;;;;12.77;5.47;;;17.20;91.80;;;;;;5051978;28;20226;-71
2021/04/10 10:34:21;;;;;;;10.32;4.40;;;17.10;92.00;;;;;;5040499;28;20277;-71
2021/04/10 10:36:50;;;;;;;9.55;4.43;;;17.10;92.10;;;;;;5052941;28;20036;-70
2021/04/10 10:39:32;;;;;;;9.20;5.20;;;17.10;92.00;;;;;;5051380;28;20033;-72
2021/04/10 10:42:01;;;;;;;12.48;5.07;;;17.10;92.00;;;;;;5052876;28;20080;-72
2021/04/10 10:44:29;;;;;;;9.38;5.10;;;17.00;92.10;;;;;;5054357;28;20036;-70
2021/04/10 10:47:04;;;;;;;9.30;4.32;;;17.00;92.40;;;;;;5053864;28;20373;-70
2021/04/10 10:49:32;;;;;;;8.68;3.90;;;17.00;92.30;;;;;;5053570;28;20021;-70
2021/04/10 10:52:00;;;;;;;11.25;4.38;;;16.90;92.10;;;;;;5053764;28;20106;-71
2021/04/10 10:54:38;;;;;;;10.50;4.15;;;16.90;92.40;;;;;;5053736;28;20028;-70
2021/04/10 10:57:16;;;;;;;10.10;3.75;;;16.90;92.40;;;;;;5052770;28;20025;-70
2021/04/10 10:59:44;;;;;;;7.38;4.55;;;16.90;92.20;;;;;;5034077;28;20064;-70
2021/04/10 11:02:18;;;;;;;8.68;3.72;;;16.90;92.40;;;;;;5046831;28;20116;-70
2021/04/10 11:04:47;;;;;;;9.07;4.25;;;16.90;92.30;;;;;;5054057;28;20028;-71
2021/04/10 11:07:22;;;;;;;6.20;2.88;;;16.90;92.20;;;;;;5051653;28;20060;-71
2021/04/10 11:09:50;;;;;;;7.00;3.53;;;16.90;92.40;;;;;;5053018;28;20377;-71
2021/04/10 11:12:19;;;;;;;9.43;3.90;;;16.80;92.50;;;;;;5051435;28;20021;-71
2021/04/10 11:14:47;;;;;;;7.85;3.50;;;16.70;92.50;;;;;;5048558;28;20033;-70
2021/04/10 11:17:32;;;;;;;8.07;4.43;;;16.80;92.40;;;;;;5046066;28;20029;-71
2021/04/10 11:20:02;;;;;;;8.73;3.22;;;16.70;92.70;;;;;;5047870;28;20458;-71
2021/04/10 11:22:30;;;;;;;8.90;3.35;;;16.70;93.00;;;;;;5047610;28;20032;-70
2021/04/10 11:25:02;;;;;;;7.80;3.15;;;16.70;92.80;;;;;;5046060;28;20028;-71
2021/04/10 11:27:35;;;;;;;9.15;3.15;;;16.70;92.80;;;;;;5042223;28;20031;-70
2021/04/10 11:30:13;;;;;;;8.27;3.00;;;16.70;92.90;;;;;;5046177;28;20583;-70
2021/04/10 11:32:44;;;;;;;6.22;2.75;;;16.70;92.80;;;;;;5047018;28;20051;-70
2021/04/10 11:35:28;;;;;;;7.63;3.00;;;16.70;93.00;;;;;;5048061;28;20021;-70
2021/04/10 11:37:57;;;;;;;5.82;2.45;;;16.70;92.80;;;;;;5048199;28;20565;-71
2021/04/10 11:40:34;;;;;;;8.25;3.05;;;16.60;93.20;;;;;;5049097;28;20063;-70
2021/04/10 11:43:04;;;;;;;8.18;2.55;;;16.60;93.30;;;;;;5045618;28;20028;-71
2021/04/10 11:45:42;;;;;;;5.82;2.40;;;16.60;93.30;;;;;;5046137;28;20493;-70
2021/04/10 11:48:17;;;;;;;9.18;2.65;;;16.60;93.00;;;;;;5044113;28;20128;-71
2021/04/10 11:50:57;;;;;;;6.97;2.55;;;16.50;93.20;;;;;;5048040;28;20043;-70
2021/04/10 11:53:25;;;;;;;6.95;2.67;;;16.40;93.60;;;;;;5047088;28;20017;-76
2021/04/10 11:55:57;;;;;;;9.30;2.50;;;16.50;93.40;;;;;;5050000;28;20702;-71
2021/04/10 11:58:36;;;;;;;7.45;2.60;;;16.50;93.40;;;;;;5047840;28;20021;-70
2021/04/10 12:01:13;;;;;;;7.72;2.17;;;16.50;93.30;;;;;;5041002;28;20024;-70
2021/04/10 12:03:52;;;;;;;4.50;1.55;;;16.50;93.10;;;;;;5049387;28;20036;-70
2021/04/10 12:06:41;;;;;;;6.40;2.42;;;16.50;93.10;;;;;;5041015;28;20017;-69
2021/04/10 12:09:14;;;;;;;7.60;2.13;;;16.50;93.50;;;;;;5049197;28;20021;-70
2021/04/10 12:11:43;;;;;;;6.40;2.25;;;16.50;93.20;;;;;;5047133;28;20044;-70
2021/04/10 12:14:14;;;;;;;4.57;1.92;;;16.40;93.10;;;;;;5050904;28;20017;-70
2021/04/10 12:16:43;;;;;;;5.85;2.45;;;16.40;93.30;;;;;;5049274;28;20537;-70
2021/04/10 12:19:14;;;;;;;7.72;2.85;;;16.40;93.60;;;;;;5045801;28;20450;-70
2021/04/10 12:21:41;;;;;;;6.40;2.33;;;16.40;93.90;;;;;;5051146;28;20025;-71
2021/04/10 12:24:09;;;;;;;7.05;2.30;;;16.40;94.30;;;;;;5050501;28;20041;-70
2021/04/10 12:26:39;;;;;;;9.35;2.47;;;16.40;94.30;;;;;;5046961;28;20037;-70
2021/04/10 12:29:07;;;;;;;5.35;1.70;;;16.40;94.80;;;;;;5049381;28;20070;-71
2021/04/10 12:31:34;;;;;;;6.45;1.70;;;16.40;94.50;;;;;;5043451;28;20018;-70
2021/04/10 12:34:01;;;;;;;6.15;1.98;;;16.30;94.60;;;;;;5047383;28;20037;-70
2021/04/10 12:36:30;;;;;;;10.43;1.88;;;16.40;94.80;;;;;;5034286;28;20095;-70
2021/04/10 12:38:58;;;;;;;6.60;2.47;;;16.40;94.70;;;;;;5049451;28;20037;-70
2021/04/10 12:41:25;;;;;;;6.72;2.38;;;16.30;95.00;;;;;;5049645;28;20033;-70
2021/04/10 12:43:53;;;;;;;6.47;2.30;;;16.30;95.10;;;;;;5051756;28;20044;-70
2021/04/10 12:46:20;;;;;;;7.45;2.10;;;16.40;95.20;;;;;;5051100;28;20143;-70
2021/04/10 12:48:48;;;;;;;5.95;2.03;;;16.30;95.50;;;;;;5050610;28;20127;-70
2021/04/10 12:51:16;;;;;;;5.78;1.65;;;16.30;95.90;;;;;;5042955;28;20084;-70
2021/04/10 12:53:43;;;;;;;8.55;2.05;;;16.30;95.90;;;;;;5065545;28;20045;-70
2021/04/10 12:56:11;;;;;;;11.77;2.20;;;16.10;96.30;;;;;;5050135;28;20105;-70
2021/04/10 12:58:38;;;;;;;8.55;1.85;;;16.00;96.40;;;;;;5050293;28;20489;-71
2021/04/10 13:01:05;;;;;;;6.18;2.28;;;16.00;96.50;;;;;;5049250;28;20106;-70
2021/04/10 13:03:33;;;;;;;9.00;2.20;;;15.90;96.30;;;;;;5049092;28;20580;-70
2021/04/10 13:06:00;;;;;;;8.88;2.17;;;16.00;96.60;;;;;;5050733;28;20041;-71
2021/04/10 13:08:28;;;;;;;4.95;1.92;;;16.10;96.60;;;;;;5047751;28;20056;-70